Time;durP1;ratioP1;P1;durP2;ratioP2;P2;SDS_P1;SDS_P2;PMS_P1;PMS_P2;Temp;Humidity;BMP_temperature;BMP_pressure;BME280_temperature;BME280_humidity;BME280_pressure;Samples;Min_cycle;Max_cycle;Signal;HPM_P1;HPM_P2
2023/06/06 00:02:13;;;;;;;;;;;;;;;13.46;51.25488;102348.3;;;;-69
2023/06/06 00:07:14;;;;;;;;;;;;;;;13.42;51.81055;102343.9;;;;-68
2023/06/06 00:10:00;;;;;;;0.2;0.1;;;;;;;;;;;;;-69
2023/06/06 00:12:14;;;;;;;;;;;;;;;13.42;51.88965;102341;;;;-68
2023/06/06 00:17:13;;;;;;;;;;;;;;;13.35;52.01563;102342.5;;;;-67
2023/06/06 00:22:14;;;;;;;;;;;;;;;13.29;52.02051;102344.6;;;;-69
2023/06/06 00:27:13;;;;;;;;;;;;;;;13.26;52.93652;102349.9;;;;-70
2023/06/06 00:32:13;;;;;;;;;;;;;;;13.23;52.55176;102352.4;;;;-68
2023/06/06 00:37:13;;;;;;;;;;;;;;;13.2;52.45898;102353.7;;;;-68
2023/06/06 00:40:01;;;;;;;0.2;0.1;;;;;;;;;;;;;-68
2023/06/06 00:42:13;;;;;;;;;;;;;;;13.19;52.61426;102357.2;;;;-69
2023/06/06 00:47:16;;;;;;;;;;;;;;;13.13;52.61719;102352.8;;;;-69
2023/06/06 00:52:13;;;;;;;;;;;;;;;13.12;52.45996;102352.1;;;;-68
2023/06/06 00:57:13;;;;;;;;;;;;;;;13.02;52.45898;102350.9;;;;-69
2023/06/06 01:02:17;;;;;;;;;;;;;;;13;52.625;102348.7;;;;-68
2023/06/06 01:07:17;;;;;;;;;;;;;;;12.94;52.48438;102349.1;;;;-69
2023/06/06 01:10:03;;;;;;;0.2;0.1;;;;;;;;;;;;;-69
2023/06/06 01:12:15;;;;;;;;;;;;;;;12.91;52.99512;102346.5;;;;-67
2023/06/06 01:17:17;;;;;;;;;;;;;;;12.85;53.25684;102344.1;;;;-68
2023/06/06 01:22:14;;;;;;;;;;;;;;;12.84;53.11035;102342.4;;;;-68
2023/06/06 01:27:13;;;;;;;;;;;;;;;12.83;52.68262;102351.1;;;;-69
2023/06/06 01:32:16;;;;;;;;;;;;;;;12.78;52.7666;102343.1;;;;-69
2023/06/06 01:37:19;;;;;;;;;;;;;;;12.72;53.20801;102345.9;;;;-70
2023/06/06 01:40:06;;;;;;;0.2;0.1;;;;;;;;;;;;;-68
2023/06/06 01:42:14;;;;;;;;;;;;;;;12.7;52.98145;102348.7;;;;-68
2023/06/06 01:47:14;;;;;;;;;;;;;;;12.66;53.10059;102343.5;;;;-68
2023/06/06 01:52:14;;;;;;;;;;;;;;;12.63;52.99512;102348.4;;;;-69
2023/06/06 01:57:13;;;;;;;;;;;;;;;12.61;53.02637;102346.4;;;;-68
2023/06/06 02:02:14;;;;;;;;;;;;;;;12.56;53.23438;102353.1;;;;-69
2023/06/06 02:07:15;;;;;;;;;;;;;;;12.55;53.2666;102351.6;;;;-67
2023/06/06 02:10:06;;;;;;;0.2;0.1;;;;;;;;;;;;;-67
2023/06/06 02:12:14;;;;;;;;;;;;;;;12.51;53.14941;102352.8;;;;-69
2023/06/06 02:17:13;;;;;;;;;;;;;;;12.44;53.20703;102349.2;;;;-67
2023/06/06 02:22:13;;;;;;;;;;;;;;;12.43;53.38574;102349.8;;;;-67
2023/06/06 02:27:15;;;;;;;;;;;;;;;12.41;53.74219;102351.6;;;;-68
2023/06/06 02:32:14;;;;;;;;;;;;;;;12.34;53.67773;102352;;;;-67
2023/06/06 02:37:13;;;;;;;;;;;;;;;12.37;54.26367;102345.4;;;;-67
2023/06/06 02:40:08;;;;;;;0.2;0.1;;;;;;;;;;;;;-68
2023/06/06 02:42:16;;;;;;;;;;;;;;;12.31;54.34473;102341;;;;-68
2023/06/06 02:47:13;;;;;;;;;;;;;;;12.31;54.4668;102340.7;;;;-67
2023/06/06 02:52:13;;;;;;;;;;;;;;;12.27;54.27246;102337.1;;;;-69
2023/06/06 02:57:13;;;;;;;;;;;;;;;12.26;54.37207;102335.3;;;;-68
2023/06/06 03:02:15;;;;;;;;;;;;;;;12.21;54.06445;102350.7;;;;-68
2023/06/06 03:07:16;;;;;;;;;;;;;;;12.18;54.0498;102348.2;;;;-68
2023/06/06 03:10:08;;;;;;;0.2;0.1;;;;;;;;;;;;;-67
2023/06/06 03:12:13;;;;;;;;;;;;;;;12.17;54.01465;102344.6;;;;-69
2023/06/06 03:17:13;;;;;;;;;;;;;;;12.13;53.8418;102344.6;;;;-69
2023/06/06 03:22:13;;;;;;;;;;;;;;;12.05;54.18945;102346.2;;;;-68
2023/06/06 03:27:13;;;;;;;;;;;;;;;12.03;53.90723;102347.5;;;;-69
2023/06/06 03:32:13;;;;;;;;;;;;;;;12.01;53.92773;102347.9;;;;-69
2023/06/06 03:37:13;;;;;;;;;;;;;;;11.99;53.68945;102347;;;;-68
2023/06/06 03:40:10;;;;;;;0.2;0;;;;;;;;;;;;;-69
2023/06/06 03:42:13;;;;;;;;;;;;;;;11.99;53.82324;102343.1;;;;-68
2023/06/06 03:47:13;;;;;;;;;;;;;;;11.95;53.80762;102344;;;;-69
2023/06/06 03:52:14;;;;;;;;;;;;;;;11.93;53.93945;102342.4;;;;-68
2023/06/06 03:57:13;;;;;;;;;;;;;;;11.91;53.58984;102343.2;;;;-67
2023/06/06 04:02:13;;;;;;;;;;;;;;;11.91;53.84668;102347.2;;;;-68
2023/06/06 04:07:13;;;;;;;;;;;;;;;11.91;53.79199;102347.6;;;;-69
2023/06/06 04:10:10;;;;;;;0.2;0.1;;;;;;;;;;;;;-68
2023/06/06 04:12:14;;;;;;;;;;;;;;;11.9;53.71289;102348;;;;-67
2023/06/06 04:17:13;;;;;;;;;;;;;;;11.95;53.80859;102352.9;;;;-70
2023/06/06 04:22:16;;;;;;;;;;;;;;;11.98;53.72168;102346.8;;;;-68
2023/06/06 04:27:16;;;;;;;;;;;;;;;12.02;53.55957;102346;;;;-69
2023/06/06 04:32:19;;;;;;;;;;;;;;;12.14;53.46289;102353.2;;;;-68
2023/06/06 04:37:14;;;;;;;;;;;;;;;12.23;53.65234;102353.6;;;;-68
2023/06/06 04:40:12;;;;;;;0.2;0.1;;;;;;;;;;;;;-69
2023/06/06 04:42:15;;;;;;;;;;;;;;;12.34;53.16211;102344.1;;;;-68
2023/06/06 04:47:18;;;;;;;;;;;;;;;12.47;53.45801;102344.5;;;;-70
2023/06/06 04:52:14;;;;;;;;;;;;;;;12.63;53.35547;102346.4;;;;-70
2023/06/06 04:57:15;;;;;;;;;;;;;;;12.73;53.56738;102345.4;;;;-70
2023/06/06 05:02:13;;;;;;;;;;;;;;;12.9;53.49902;102344.6;;;;-67
2023/06/06 05:07:13;;;;;;;;;;;;;;;13.1;53.97266;102342.1;;;;-68
2023/06/06 05:10:15;;;;;;;0.2;0.1;;;;;;;;;;;;;-69
2023/06/06 05:12:13;;;;;;;;;;;;;;;13.2;54.55664;102347.9;;;;-69
2023/06/06 05:17:13;;;;;;;;;;;;;;;13.32;54.41504;102339.8;;;;-69
2023/06/06 05:22:13;;;;;;;;;;;;;;;13.64;54.55664;102340;;;;-67
2023/06/06 05:27:13;;;;;;;;;;;;;;;13.99;54.53223;102339.2;;;;-67
2023/06/06 05:32:13;;;;;;;;;;;;;;;14.32;54.22363;102341.6;;;;-68
2023/06/06 05:37:13;;;;;;;;;;;;;;;14.53;53.90234;102341.4;;;;-68
2023/06/06 05:40:15;;;;;;;0.3;0.2;;;;;;;;;;;;;-68
2023/06/06 05:42:13;;;;;;;;;;;;;;;14.7;54.23633;102345.7;;;;-66
2023/06/06 05:47:15;;;;;;;;;;;;;;;14.91;54.83691;102339.5;;;;-70
2023/06/06 05:52:13;;;;;;;;;;;;;;;15.39;54.14063;102336.9;;;;-67
2023/06/06 05:57:25;;;;;;;;;;;;;;;15.95;52.94434;102341.1;;;;-68
2023/06/06 06:02:14;;;;;;;;;;;;;;;16.26;52.75684;102335.3;;;;-68
2023/06/06 06:07:13;;;;;;;;;;;;;;;16.39;52.10547;102338;;;;-70
2023/06/06 06:10:16;;;;;;;0.2;0.1;;;;;;;;;;;;;-67
2023/06/06 06:12:13;;;;;;;;;;;;;;;16.78;51.23438;102330.2;;;;-68
2023/06/06 06:17:13;;;;;;;;;;;;;;;17.29;50.57813;102338.6;;;;-67
2023/06/06 06:22:15;;;;;;;;;;;;;;;17.76;49.72461;102339;;;;-68
2023/06/06 06:27:13;;;;;;;;;;;;;;;18.12;48.86719;102340;;;;-69
2023/06/06 06:32:13;;;;;;;;;;;;;;;18.54;48.8457;102345;;;;-69
2023/06/06 06:37:13;;;;;;;;;;;;;;;18.59;49.10254;102346.7;;;;-68
2023/06/06 06:40:19;;;;;;;0.3;0.1;;;;;;;;;;;;;-69
2023/06/06 06:42:13;;;;;;;;;;;;;;;18.47;49.04297;102356;;;;-68
2023/06/06 06:47:13;;;;;;;;;;;;;;;18.69;49.35156;102351.5;;;;-68
2023/06/06 06:52:15;;;;;;;;;;;;;;;19.15;48.20703;102347.9;;;;-69
2023/06/06 06:57:13;;;;;;;;;;;;;;;19.56;47.4873;102341.9;;;;-67
2023/06/06 07:02:13;;;;;;;;;;;;;;;19.94;47.55078;102343.3;;;;-68
2023/06/06 07:07:13;;;;;;;;;;;;;;;20.3;46.29785;102340.2;;;;-68
2023/06/06 07:10:20;;;;;;;0.2;0.1;;;;;;;;;;;;;-70
2023/06/06 07:12:14;;;;;;;;;;;;;;;20.6;46.1582;102333.6;;;;-69
2023/06/06 07:17:15;;;;;;;;;;;;;;;20.94;45.42578;102335.8;;;;-73
2023/06/06 07:22:14;;;;;;;;;;;;;;;21.14;45.34375;102345;;;;-72
2023/06/06 07:27:15;;;;;;;;;;;;;;;21.43;45.00684;102347.5;;;;-73
2023/06/06 07:32:13;;;;;;;;;;;;;;;21.49;44.95508;102346.8;;;;-72
2023/06/06 07:37:16;;;;;;;;;;;;;;;21.7;44.67676;102335.7;;;;-72
2023/06/06 07:40:23;;;;;;;0.2;0.1;;;;;;;;;;;;;-72
2023/06/06 07:42:15;;;;;;;;;;;;;;;21.9;44.37695;102336.3;;;;-71
2023/06/06 07:47:13;;;;;;;;;;;;;;;22.13;44.30762;102334.2;;;;-72
2023/06/06 07:52:16;;;;;;;;;;;;;;;22.25;43.90527;102332.4;;;;-72
2023/06/06 07:57:15;;;;;;;;;;;;;;;22.47;43.59375;102334.3;;;;-72
2023/06/06 08:02:22;;;;;;;;;;;;;;;22.58;43.55957;102332.9;;;;-70
2023/06/06 08:07:14;;;;;;;;;;;;;;;22.83;42.97461;102329.7;;;;-72
2023/06/06 08:10:27;;;;;;;0.2;0;;;;;;;;;;;;;-70
2023/06/06 08:12:16;;;;;;;;;;;;;;;22.95;42.98535;102331.7;;;;-71
2023/06/06 08:17:13;;;;;;;;;;;;;;;23.13;42.86426;102330.8;;;;-72
2023/06/06 08:22:13;;;;;;;;;;;;;;;23.26;42.6582;102334.5;;;;-71
2023/06/06 08:27:14;;;;;;;;;;;;;;;23.29;42.81055;102327.2;;;;-72
2023/06/06 08:32:14;;;;;;;;;;;;;;;23.51;42.50879;102324.8;;;;-72
2023/06/06 08:37:13;;;;;;;;;;;;;;;23.7;42.35352;102326.6;;;;-72
2023/06/06 08:40:29;;;;;;;0.2;0;;;;;;;;;;;;;-71
2023/06/06 08:42:14;;;;;;;;;;;;;;;23.87;42.0459;102322.6;;;;-71
2023/06/06 08:47:14;;;;;;;;;;;;;;;24.08;41.90527;102325;;;;-72
2023/06/06 08:52:15;;;;;;;;;;;;;;;24.24;41.71191;102325.9;;;;-71
2023/06/06 08:57:15;;;;;;;;;;;;;;;24.5;41.34375;102325.8;;;;-71
2023/06/06 09:02:13;;;;;;;;;;;;;;;24.61;41.20313;102317.4;;;;-73
2023/06/06 09:07:17;;;;;;;;;;;;;;;24.86;40.94922;102317.6;;;;-71
2023/06/06 09:10:32;;;;;;;0.4;0.1;;;;;;;;;;;;;-73
2023/06/06 09:12:14;;;;;;;;;;;;;;;25.1;40.6582;102318;;;;-71
2023/06/06 09:17:18;;;;;;;;;;;;;;;25.32;40.28418;102317;;;;-71
2023/06/06 09:22:15;;;;;;;;;;;;;;;25.52;39.94336;102326.8;;;;-70
2023/06/06 09:27:23;;;;;;;;;;;;;;;25.64;39.67578;102332;;;;-71
2023/06/06 09:32:14;;;;;;;;;;;;;;;25.78;39.43359;102321.9;;;;-71
2023/06/06 09:37:13;;;;;;;;;;;;;;;25.95;39.13477;102316;;;;-71
2023/06/06 09:40:50;;;;;;;0.2;0;;;;;;;;;;;;;-71
2023/06/06 09:42:15;;;;;;;;;;;;;;;26.13;38.83691;102315.6;;;;-71
2023/06/06 09:47:13;;;;;;;;;;;;;;;26.25;38.80176;102313.9;;;;-70
2023/06/06 09:52:17;;;;;;;;;;;;;;;26.3;38.50391;102321.9;;;;-71
2023/06/06 09:57:15;;;;;;;;;;;;;;;26.43;38.33984;102320.5;;;;-71
2023/06/06 10:02:14;;;;;;;;;;;;;;;26.64;37.88184;102324.5;;;;-72
2023/06/06 10:07:13;;;;;;;;;;;;;;;26.74;37.88965;102322.9;;;;-71
2023/06/06 10:10:41;;;;;;;0.7;0.4;;;;;;;;;;;;;-72
2023/06/06 10:12:16;;;;;;;;;;;;;;;26.84;37.60742;102316.1;;;;-72
2023/06/06 10:17:14;;;;;;;;;;;;;;;26.99;37.22559;102321.2;;;;-71
2023/06/06 10:22:14;;;;;;;;;;;;;;;27.07;37.02246;102316.1;;;;-72
2023/06/06 10:27:18;;;;;;;;;;;;;;;27.22;36.86035;102312.6;;;;-72
2023/06/06 10:32:17;;;;;;;;;;;;;;;27.35;37.04492;102316.5;;;;-72
2023/06/06 10:37:25;;;;;;;;;;;;;;;27.42;36.92383;102306.9;;;;-72
2023/06/06 10:40:52;;;;;;;1.2;0.3;;;;;;;;;;;;;-73
2023/06/06 10:42:14;;;;;;;;;;;;;;;27.53;36.83887;102308.2;;;;-72
2023/06/06 10:47:27;;;;;;;;;;;;;;;27.63;36.8125;102303;;;;-72
2023/06/06 10:52:16;;;;;;;;;;;;;;;27.76;36.50781;102310.8;;;;-72
2023/06/06 10:57:18;;;;;;;;;;;;;;;27.88;37.57813;102303.9;;;;-72
2023/06/06 11:02:29;;;;;;;;;;;;;;;28.1;37.30469;102316;;;;-71
2023/06/06 11:07:21;;;;;;;;;;;;;;;28.26;36.875;102312.5;;;;-71
2023/06/06 11:10:52;;;;;;;0.7;0.4;;;;;;;;;;;;;-72
2023/06/06 11:12:24;;;;;;;;;;;;;;;28.34;37.0918;102308.4;;;;-72
2023/06/06 11:17:15;;;;;;;;;;;;;;;28.55;36.5127;102309.9;;;;-71
2023/06/06 11:22:23;;;;;;;;;;;;;;;28.65;36.91895;102304.6;;;;-72
2023/06/06 11:27:13;;;;;;;;;;;;;;;28.88;36.9834;102304.8;;;;-72
2023/06/06 11:32:20;;;;;;;;;;;;;;;29.03;36.87891;102304.6;;;;-71
2023/06/06 11:37:14;;;;;;;;;;;;;;;29.1;36.1709;102296.4;;;;-71
2023/06/06 11:40:54;;;;;;;1.2;0.1;;;;;;;;;;;;;-70
2023/06/06 11:42:22;;;;;;;;;;;;;;;29.12;36.80469;102293.9;;;;-72
2023/06/06 11:47:13;;;;;;;;;;;;;;;29.19;36.60059;102298.6;;;;-72
2023/06/06 11:52:14;;;;;;;;;;;;;;;29.36;36.66016;102295.7;;;;-74
2023/06/06 11:57:13;;;;;;;;;;;;;;;29.47;36.58691;102294.7;;;;-72
2023/06/06 12:02:16;;;;;;;;;;;;;;;29.6;35.56836;102295.7;;;;-69
2023/06/06 12:07:13;;;;;;;;;;;;;;;29.72;35.45996;102290.2;;;;-68
2023/06/06 12:11:11;;;;;;;0.2;0;;;;;;;;;;;;;-68
2023/06/06 12:12:14;;;;;;;;;;;;;;;29.81;36.2168;102293;;;;-69
2023/06/06 12:17:13;;;;;;;;;;;;;;;29.75;35.16992;102285;;;;-68
2023/06/06 12:22:16;;;;;;;;;;;;;;;29.81;35.49121;102287.6;;;;-67
2023/06/06 12:27:16;;;;;;;;;;;;;;;29.89;36.18848;102280.2;;;;-67
2023/06/06 12:32:25;;;;;;;;;;;;;;;29.91;36.38867;102290.5;;;;-68
2023/06/06 12:37:13;;;;;;;;;;;;;;;29.87;36.26855;102285.4;;;;-67
2023/06/06 12:41:04;;;;;;;0.2;0;;;;;;;;;;;;;-67
2023/06/06 12:42:19;;;;;;;;;;;;;;;30.11;36.60449;102287.2;;;;-67
2023/06/06 12:47:14;;;;;;;;;;;;;;;30.14;34.9541;102279.5;;;;-68
2023/06/06 12:52:15;;;;;;;;;;;;;;;30.2;35.67383;102274;;;;-69
2023/06/06 12:57:15;;;;;;;;;;;;;;;30.25;35.51367;102267.9;;;;-69
2023/06/06 13:02:13;;;;;;;;;;;;;;;30.36;35.22949;102276.6;;;;-68
2023/06/06 13:07:14;;;;;;;;;;;;;;;30.44;35.90332;102274.7;;;;-68
2023/06/06 13:11:10;;;;;;;0.2;0;;;;;;;;;;;;;-68
2023/06/06 13:12:13;;;;;;;;;;;;;;;30.45;35.30664;102280.3;;;;-70
2023/06/06 13:17:13;;;;;;;;;;;;;;;30.43;35.4209;102278.6;;;;-70
2023/06/06 13:22:13;;;;;;;;;;;;;;;30.3;35.22363;102279.3;;;;-70
2023/06/06 13:27:13;;;;;;;;;;;;;;;30.34;34.30078;102276.4;;;;-69
2023/06/06 13:32:14;;;;;;;;;;;;;;;30.51;35.33496;102274.6;;;;-68
2023/06/06 13:37:13;;;;;;;;;;;;;;;30.58;34.47168;102276.1;;;;-68
2023/06/06 13:41:14;;;;;;;0.1;0;;;;;;;;;;;;;-68
2023/06/06 13:42:13;;;;;;;;;;;;;;;30.49;35.67285;102268.6;;;;-69
2023/06/06 13:47:13;;;;;;;;;;;;;;;30.56;34.98633;102270.2;;;;-69
2023/06/06 13:52:13;;;;;;;;;;;;;;;30.5;35.02832;102269.6;;;;-69
2023/06/06 13:57:14;;;;;;;;;;;;;;;30.47;34.74414;102269.2;;;;-68
2023/06/06 14:02:16;;;;;;;;;;;;;;;30.49;34.94629;102263.5;;;;-68
2023/06/06 14:07:14;;;;;;;;;;;;;;;30.51;34.68945;102260.2;;;;-70
2023/06/06 14:11:20;;;;;;;0.1;0;;;;;;;;;;;;;-68
2023/06/06 14:12:14;;;;;;;;;;;;;;;30.46;34.91992;102259.5;;;;-71
2023/06/06 14:17:13;;;;;;;;;;;;;;;30.39;35.24219;102263.8;;;;-69
2023/06/06 14:22:33;;;;;;;;;;;;;;;30.35;35.12305;102263;;;;-69
2023/06/06 14:27:13;;;;;;;;;;;;;;;30.36;35.22949;102266.6;;;;-69
2023/06/06 14:32:17;;;;;;;;;;;;;;;30.31;34.58008;102263.7;;;;-69
2023/06/06 14:37:13;;;;;;;;;;;;;;;30.16;34.62793;102257.8;;;;-70
2023/06/06 14:41:25;;;;;;;1;0.1;;;;;;;;;;;;;-68
2023/06/06 14:42:17;;;;;;;;;;;;;;;30.06;33.8457;102249.9;;;;-69
2023/06/06 14:47:13;;;;;;;;;;;;;;;29.99;34.61426;102253.8;;;;-69
2023/06/06 14:52:18;;;;;;;;;;;;;;;29.78;34.64453;102251;;;;-70
2023/06/06 14:57:15;;;;;;;;;;;;;;;29.75;34.05762;102242.4;;;;-69
2023/06/06 15:02:13;;;;;;;;;;;;;;;29.81;35.2334;102244.4;;;;-69
2023/06/06 15:07:15;;;;;;;;;;;;;;;29.77;34.32813;102257.1;;;;-68
2023/06/06 15:11:37;;;;;;;0.1;0;;;;;;;;;;;;;-69
2023/06/06 15:12:16;;;;;;;;;;;;;;;29.63;34.05957;102258.1;;;;-71
2023/06/06 15:17:14;;;;;;;;;;;;;;;29.53;34.41602;102255.6;;;;-69
2023/06/06 15:22:15;;;;;;;;;;;;;;;29.45;34.98242;102263.6;;;;-68
2023/06/06 15:27:13;;;;;;;;;;;;;;;29.41;34.69922;102261.4;;;;-72
2023/06/06 15:32:14;;;;;;;;;;;;;;;29.32;34.80859;102255.9;;;;-69
2023/06/06 15:37:13;;;;;;;;;;;;;;;29.15;34.9248;102254.8;;;;-67
2023/06/06 15:41:36;;;;;;;0.2;0;;;;;;;;;;;;;-70
2023/06/06 15:42:14;;;;;;;;;;;;;;;29.09;35.16602;102246.2;;;;-70
2023/06/06 15:47:13;;;;;;;;;;;;;;;28.87;35.05469;102248.2;;;;-68
2023/06/06 15:52:13;;;;;;;;;;;;;;;28.65;35.0498;102241.7;;;;-70
2023/06/06 15:57:13;;;;;;;;;;;;;;;28.41;35.39258;102235.1;;;;-70
2023/06/06 16:02:13;;;;;;;;;;;;;;;28.2;35.2832;102238.1;;;;-69
2023/06/06 16:07:13;;;;;;;;;;;;;;;28.14;35.97852;102235.3;;;;-70
2023/06/06 16:11:41;;;;;;;0.3;0;;;;;;;;;;;;;-69
2023/06/06 16:12:13;;;;;;;;;;;;;;;28;36.17676;102234.2;;;;-70
2023/06/06 16:17:14;;;;;;;;;;;;;;;27.84;36.09473;102231.8;;;;-70
2023/06/06 16:22:13;;;;;;;;;;;;;;;27.65;35.96289;102233.7;;;;-69
2023/06/06 16:27:13;;;;;;;;;;;;;;;27.47;36.48438;102236.8;;;;-68
2023/06/06 16:32:14;;;;;;;;;;;;;;;27.35;36.3584;102230.8;;;;-73
2023/06/06 16:37:14;;;;;;;;;;;;;;;27.14;36.85352;102225;;;;-71
2023/06/06 16:41:50;;;;;;;0.2;0;;;;;;;;;;;;;-70
2023/06/06 16:42:13;;;;;;;;;;;;;;;27.01;36.85449;102226.5;;;;-70
2023/06/06 16:47:18;;;;;;;;;;;;;;;26.73;37.2041;102226;;;;-71
2023/06/06 16:52:13;;;;;;;;;;;;;;;26.57;37.29492;102228.1;;;;-73
2023/06/06 16:57:14;;;;;;;;;;;;;;;26.29;37.02832;102230.1;;;;-72
2023/06/06 17:02:15;;;;;;;;;;;;;;;26.03;37.18066;102229;;;;-72
2023/06/06 17:07:14;;;;;;;;;;;;;;;25.81;37.77734;102234.9;;;;-69
2023/06/06 17:11:51;;;;;;;1;0.2;;;;;;;;;;;;;-71
2023/06/06 17:12:15;;;;;;;;;;;;;;;25.69;38.13867;102238.2;;;;-71
2023/06/06 17:17:13;;;;;;;;;;;;;;;25.54;38.10254;102240.8;;;;-72
2023/06/06 17:22:15;;;;;;;;;;;;;;;25.27;38.20703;102233.5;;;;-70
2023/06/06 17:32:17;;;;;;;;;;;;;;;24.78;39.09082;102226;;;;-71
2023/06/06 17:37:14;;;;;;;;;;;;;;;24.48;39.33105;102232.2;;;;-69
2023/06/06 17:41:55;;;;;;;0.2;0.1;;;;;;;;;;;;;-69
2023/06/06 17:42:14;;;;;;;;;;;;;;;24.35;39.26172;102244;;;;-68
2023/06/06 17:47:15;;;;;;;;;;;;;;;24.08;39.58496;102240.6;;;;-69
2023/06/06 17:52:13;;;;;;;;;;;;;;;23.86;39.99219;102239.7;;;;-69
2023/06/06 17:57:15;;;;;;;;;;;;;;;23.64;40.27246;102244.5;;;;-69
2023/06/06 18:02:14;;;;;;;;;;;;;;;23.5;40.27148;102244.2;;;;-69
2023/06/06 18:07:13;;;;;;;;;;;;;;;23.22;40.81055;102238.7;;;;-68
2023/06/06 18:12:00;;;;;;;0.4;0.1;;;;;;;;;;;;;-67
2023/06/06 18:12:14;;;;;;;;;;;;;;;23.07;41.28125;102239.5;;;;-68
2023/06/06 18:17:16;;;;;;;;;;;;;;;22.92;40.9209;102241.9;;;;-68
2023/06/06 18:22:13;;;;;;;;;;;;;;;22.72;41.20215;102249.8;;;;-70
2023/06/06 18:27:14;;;;;;;;;;;;;;;22.5;41.52734;102245.1;;;;-68
2023/06/06 18:32:16;;;;;;;;;;;;;;;21;45.3291;102242.3;;;;-71
2023/06/06 18:37:13;;;;;;;;;;;;;;;19.7;48.85938;102243;;;;-69
2023/06/06 18:42:03;;;;;;;0.4;0.1;;;;;;;;;;;;;-68
2023/06/06 18:42:13;;;;;;;;;;;;;;;21.13;44.62109;102252.9;;;;-70
2023/06/06 18:47:13;;;;;;;;;;;;;;;21.43;43.89355;102261;;;;-69
2023/06/06 18:52:13;;;;;;;;;;;;;;;21.3;43.06641;102263.8;;;;-69
2023/06/06 18:57:14;;;;;;;;;;;;;;;21.13;41.66406;102267.2;;;;-68
2023/06/06 19:02:13;;;;;;;;;;;;;;;20.94;42.19629;102276.5;;;;-68
2023/06/06 19:07:13;;;;;;;;;;;;;;;20.74;42.00488;102274.8;;;;-72
2023/06/06 19:12:07;;;;;;;1.3;0.3;;;;;;;;;;;;;-69
2023/06/06 19:12:17;;;;;;;;;;;;;;;20.49;42.19922;102262.8;;;;-67
2023/06/06 19:17:13;;;;;;;;;;;;;;;20.28;42.20215;102270.7;;;;-67
2023/06/06 19:22:13;;;;;;;;;;;;;;;20.07;43.10938;102270.4;;;;-72
2023/06/06 19:27:13;;;;;;;;;;;;;;;19.82;42.91406;102274.3;;;;-70
2023/06/06 19:32:14;;;;;;;;;;;;;;;19.59;43.21094;102277.9;;;;-68
2023/06/06 19:37:14;;;;;;;;;;;;;;;19.37;43.75977;102280.2;;;;-67
2023/06/06 19:42:14;;;;;;;1.2;0.3;;;;;;;;;;;;;-68
2023/06/06 19:42:24;;;;;;;;;;;;;;;19.16;43.93262;102282.2;;;;-71
2023/06/06 19:47:13;;;;;;;;;;;;;;;18.95;43.99219;102286.6;;;;-69
2023/06/06 19:52:14;;;;;;;;;;;;;;;18.74;44.59863;102286.6;;;;-70
2023/06/06 19:57:13;;;;;;;;;;;;;;;18.53;44.50781;102286.2;;;;-68
2023/06/06 20:02:13;;;;;;;;;;;;;;;18.33;44.49902;102295.5;;;;-71
2023/06/06 20:07:13;;;;;;;;;;;;;;;18.13;44.82129;102299.3;;;;-68
2023/06/06 20:12:13;;;;;;;0.3;0.1;;;;;;;;;;;;;-69
2023/06/06 20:12:23;;;;;;;;;;;;;;;17.93;45.00586;102298.5;;;;-70
2023/06/06 20:17:13;;;;;;;;;;;;;;;17.76;45.375;102313.5;;;;-70
2023/06/06 20:22:26;;;;;;;;;;;;;;;17.57;45.73047;102313.8;;;;-68
2023/06/06 20:27:19;;;;;;;;;;;;;;;17.44;45.98926;102306.3;;;;-69
2023/06/06 20:32:17;;;;;;;;;;;;;;;17.27;45.92578;102313.9;;;;-69
2023/06/06 20:37:13;;;;;;;;;;;;;;;17.14;46.46875;102317.9;;;;-71
2023/06/06 20:42:13;;;;;;;;;;;;;;;16.98;46.91797;102312.8;;;;-67
2023/06/06 20:42:24;;;;;;;0.2;0.1;;;;;;;;;;;;;-67
2023/06/06 20:47:13;;;;;;;;;;;;;;;16.82;46.62793;102313.2;;;;-68
2023/06/06 20:52:13;;;;;;;;;;;;;;;16.7;47.06836;102313.1;;;;-70
2023/06/06 20:57:13;;;;;;;;;;;;;;;16.55;47.01855;102319.6;;;;-69
2023/06/06 21:02:13;;;;;;;;;;;;;;;16.41;47.40039;102315.5;;;;-69
2023/06/06 21:07:13;;;;;;;;;;;;;;;16.29;47.76074;102318.1;;;;-68
2023/06/06 21:12:13;;;;;;;;;;;;;;;16.15;48.01855;102318.2;;;;-69
2023/06/06 21:12:23;;;;;;;0.2;0.1;;;;;;;;;;;;;-69
2023/06/06 21:17:16;;;;;;;;;;;;;;;16.05;47.88281;102318.2;;;;-69
2023/06/06 21:22:14;;;;;;;;;;;;;;;15.92;48.02539;102320.1;;;;-70
2023/06/06 21:27:14;;;;;;;;;;;;;;;15.79;48.46484;102315.6;;;;-68
2023/06/06 21:32:13;;;;;;;;;;;;;;;15.68;48.2041;102318.1;;;;-67
2023/06/06 21:37:13;;;;;;;;;;;;;;;15.61;48.15039;102319.7;;;;-70
2023/06/06 21:42:13;;;;;;;;;;;;;;;15.49;48.62305;102327.7;;;;-67
2023/06/06 21:42:25;;;;;;;0.2;0;;;;;;;;;;;;;-67
2023/06/06 21:47:13;;;;;;;;;;;;;;;15.38;48.89355;102326.3;;;;-69
2023/06/06 21:52:13;;;;;;;;;;;;;;;15.32;49.50684;102331.2;;;;-69
2023/06/06 21:57:13;;;;;;;;;;;;;;;15.27;49.79492;102331.8;;;;-67
2023/06/06 22:02:13;;;;;;;;;;;;;;;15.14;49.67871;102338;;;;-69
2023/06/06 22:07:13;;;;;;;;;;;;;;;15.08;49.96582;102335.3;;;;-68
2023/06/06 22:12:13;;;;;;;;;;;;;;;15.01;49.86816;102332.7;;;;-69
2023/06/06 22:12:23;;;;;;;0.2;0.1;;;;;;;;;;;;;-69
2023/06/06 22:17:13;;;;;;;;;;;;;;;14.96;50.50586;102331.1;;;;-69
2023/06/06 22:22:13;;;;;;;;;;;;;;;14.88;50.74316;102330.4;;;;-69
2023/06/06 22:27:13;;;;;;;;;;;;;;;14.8;50.43066;102330;;;;-71
2023/06/06 22:32:13;;;;;;;;;;;;;;;14.76;50.98926;102328.4;;;;-69
2023/06/06 22:37:13;;;;;;;;;;;;;;;14.67;51.00098;102329.4;;;;-68
2023/06/06 22:42:13;;;;;;;;;;;;;;;14.58;51.2832;102331;;;;-70
2023/06/06 22:42:24;;;;;;;0.2;0.1;;;;;;;;;;;;;-70
2023/06/06 22:47:13;;;;;;;;;;;;;;;14.54;51.53809;102327.5;;;;-68
2023/06/06 22:52:14;;;;;;;;;;;;;;;14.48;51.35156;102334.9;;;;-68
2023/06/06 22:57:14;;;;;;;;;;;;;;;14.41;51.38867;102329.5;;;;-67
2023/06/06 23:02:13;;;;;;;;;;;;;;;14.36;51.40527;102328.7;;;;-69
2023/06/06 23:07:14;;;;;;;;;;;;;;;14.27;52.0127;102328.4;;;;-68
2023/06/06 23:12:14;;;;;;;;;;;;;;;14.23;51.88379;102327.8;;;;-67
2023/06/06 23:12:29;;;;;;;0.2;0;;;;;;;;;;;;;-69
2023/06/06 23:17:14;;;;;;;;;;;;;;;14.16;51.8418;102326.9;;;;-69
2023/06/06 23:22:14;;;;;;;;;;;;;;;14.12;52.38867;102323.5;;;;-69
2023/06/06 23:27:13;;;;;;;;;;;;;;;14.08;52.66504;102315.9;;;;-69
2023/06/06 23:32:16;;;;;;;;;;;;;;;13.98;52.6084;102311.1;;;;-69
2023/06/06 23:37:13;;;;;;;;;;;;;;;13.97;52.47168;102309.3;;;;-68
2023/06/06 23:42:13;;;;;;;;;;;;;;;13.91;52.84668;102318;;;;-68
2023/06/06 23:42:28;;;;;;;0.2;0.1;;;;;;;;;;;;;-69
2023/06/06 23:47:13;;;;;;;;;;;;;;;13.86;52.91992;102321.1;;;;-69
2023/06/06 23:52:13;;;;;;;;;;;;;;;13.8;53.19336;102316.4;;;;-69
2023/06/06 23:57:13;;;;;;;;;;;;;;;13.77;53.10059;102318.3;;;;-68
